»·PEaware :: N76450. L52-L88

N76450. :: L52-L88

FLIGHT INFORMATION

Flight Status: Arrived
Operator: Privately registered:
United States
More flights under this callsign
Pilot: Craig B. (17752)
Aircraft: CESSNA 172 SKYHAWK
(C172)
More flights by this aircraft type
Origin: L52 Oceano Co
United States
Destination: L88 New Cuyama
United States
More flights between these airports :: More routes between these airports
Route: L52 DCT L88
File this flight plan on PilotEdge
Remarks:
Altitude:
(Current/Filed)
7,500ft
Speed:
(Current/Filed)
90kts
Departed: 04-Jan-18 07:06 AM
Arrived: 04-Jan-18 07:38 AM
Distance/Time
Traveled:
47nm/0:32
Distance/Time
To Go:
Arrived

Flight Plot

Page will automatically refresh every two minutes.


Map Options




Map Legend


Flown Route
Filed Route
Departure Airport
Arrival Airport
Navaid (VOR, NDB)
Fix

Horizontal Profiles

Position Reports

Time Latitude Longitude Heading Altitude Ground
Speed
04-Jan-18 07:08 35.103497 -120.624069 34 17ft 0kts
04-Jan-18 07:09 35.103497 -120.624069 34 17ft 0kts
04-Jan-18 07:10 35.103644 -120.624437 273 17ft 7kts
04-Jan-18 07:11 35.103084 -120.625125 132 17ft 7kts
04-Jan-18 07:12 35.093109 -120.608064 125 423ft 83kts
04-Jan-18 07:13 35.085423 -120.582469 91 1287ft 83kts
04-Jan-18 07:14 35.081038 -120.554454 104 2060ft 84kts
04-Jan-18 07:15 35.074581 -120.526487 106 2773ft 85kts
04-Jan-18 07:16 35.068258 -120.498196 103 3444ft 86kts
04-Jan-18 07:17 35.062635 -120.469381 103 4119ft 87kts
04-Jan-18 07:18 35.057084 -120.440110 102 4748ft 88kts
04-Jan-18 07:19 35.051529 -120.410585 102 5310ft 89kts
04-Jan-18 07:20 35.045931 -120.380774 102 5842ft 90kts
04-Jan-18 07:21 35.040267 -120.350609 102 6341ft 91kts
04-Jan-18 07:22 35.034574 -120.320290 102 6792ft 92kts
04-Jan-18 07:23 35.028814 -120.289618 102 7204ft 92kts
04-Jan-18 07:24 35.022891 -120.258083 102 7478ft 100kts
04-Jan-18 07:25 35.016362 -120.223325 102 7496ft 108kts
04-Jan-18 07:26 35.009687 -120.187786 102 7537ft 107kts
04-Jan-18 07:27 35.002959 -120.151970 102 7485ft 108kts
04-Jan-18 07:28 34.996216 -120.116080 102 7440ft 107kts
04-Jan-18 07:29 34.989620 -120.080975 102 7465ft 104kts
04-Jan-18 07:30 34.983105 -120.046302 102 7487ft 105kts
04-Jan-18 07:31 34.976611 -120.011744 102 7481ft 102kts
04-Jan-18 07:32 34.970063 -119.976904 102 7006ft 104kts
04-Jan-18 07:33 34.963591 -119.942464 102 6498ft 104kts
04-Jan-18 07:34 34.957138 -119.908136 102 6029ft 103kts
04-Jan-18 07:35 34.951788 -119.873971 94 5591ft 102kts
04-Jan-18 07:36 34.949719 -119.839453 93 5147ft 101kts
04-Jan-18 07:37 34.947922 -119.805089 93 4567ft 100kts
04-Jan-18 07:38 34.946168 -119.771113 93 3902ft 99kts
04-Jan-18 07:39 34.944430 -119.737446 93 3260ft 99kts
04-Jan-18 07:40 34.933725 -119.707456 126 3044ft 92kts
04-Jan-18 07:41 34.921218 -119.687108 126 2844ft 74kts
04-Jan-18 07:42 34.930758 -119.673850 324 2499ft 73kts
04-Jan-18 07:43 34.938355 -119.690669 294 2206ft 46kts
04-Jan-18 07:44 34.939772 -119.693627 21 2206ft 0kts
04-Jan-18 07:45 34.939772 -119.693627 21 2206ft 0kts
04-Jan-18 07:46 34.939773 -119.693626 21 2206ft 0kts
04-Jan-18 07:47 34.939773 -119.693626 21 2206ft 0kts
04-Jan-18 07:48 34.939932 -119.693690 299 2206ft 7kts
04-Jan-18 07:49 34.940721 -119.693883 33 2206ft 0kts
04-Jan-18 07:50 34.940721 -119.693883 33 2206ft 0kts
04-Jan-18 07:51 34.940722 -119.693882 33 2206ft 0kts
04-Jan-18 07:52 34.940722 -119.693882 33 2206ft 0kts
04-Jan-18 07:53 34.940723 -119.693882 33 2206ft 0kts
04-Jan-18 07:54 34.940723 -119.693881 33 2206ft 0kts
04-Jan-18 07:55 34.940723 -119.693881 33 2206ft 0kts
04-Jan-18 07:56 34.940724 -119.693881 33 2206ft 0kts
04-Jan-18 07:57 34.940724 -119.693880 33 2206ft 0kts
04-Jan-18 07:58 34.940725 -119.693880 33 2206ft 0kts
04-Jan-18 07:59 34.940725 -119.693880 33 2206ft 0kts

Navigation Log

Ident Type
Flight plan parsing failed, navigation log unavailable